Time;durP1;ratioP1;P1;durP2;ratioP2;P2;SDS_P1;SDS_P2;PMS_P1;PMS_P2;Temp;Humidity;BMP_temperature;BMP_pressure;BME280_temperature;BME280_humidity;BME280_pressure;Samples;Min_cycle;Max_cycle;Signal;HPM_P1;HPM_P2
2023/01/24 00:00:16;;;;;;;;;;;;;;;;;;4441390;32;20530;-75
2023/01/24 00:02:41;;;;;;;30.27;21.08;;;;;;;;;;4455050;32;20334;-76
2023/01/24 00:05:06;;;;;;;;;;;;;;;;;;4454597;32;20029;-76
2023/01/24 00:07:31;;;;;;;29.90;20.95;;;;;;;;;;4454539;32;19980;-74
2023/01/24 00:09:56;;;;;;;;;;;;;;;;;;4455958;32;20115;-76
2023/01/24 00:12:22;;;;;;;33.15;21.27;;;;;;;;;;4439771;32;19940;-75
2023/01/24 00:14:47;;;;;;;;;;;;;;;;;;4440635;32;20585;-76
2023/01/24 00:17:13;;;;;;;31.12;20.67;;;;;;;;;;4439968;32;19988;-74
2023/01/24 00:19:38;;;;;;;;;;;;;;;;;;4454439;32;20512;-75
2023/01/24 00:22:03;;;;;;;31.00;21.54;;;;;;;;;;4454486;32;20309;-76
2023/01/24 00:24:29;;;;;;;;;;;;;;;;;;4454809;32;20029;-75
2023/01/24 00:26:54;;;;;;;31.37;21.92;;;;;;;;;;4454621;32;19959;-75
2023/01/24 00:29:20;;;;;;;;;;;;;;;;;;4454696;32;20025;-76
2023/01/24 00:31:45;;;;;;;34.40;23.27;;;;;;;;;;4455953;32;20000;-75
2023/01/24 00:34:10;;;;;;;;;;;;;;;;;;4455626;32;20116;-75
2023/01/24 00:36:35;;;;;;;33.33;22.65;;;;;;;;;;4454854;32;20254;-75
2023/01/24 00:39:00;;;;;;;33.28;23.30;;;;;;;;;;4455780;32;20048;-76
2023/01/24 00:41:25;;;;;;;31.37;21.55;;;;;;;;;;4440653;32;20025;-75
2023/01/24 00:43:51;;;;;;;29.33;20.67;;;;;;;;;;4455014;32;20052;-75
2023/01/24 00:46:19;;;;;;;;;;;;;;;;;;4453824;32;20056;-75
2023/01/24 00:48:44;;;;;;;32.35;22.15;;;;;;;;;;4439044;32;19937;-77
2023/01/24 00:51:09;;;;;;;;;;;;;;;;;;4453215;32;20092;-75
2023/01/24 00:53:34;;;;;;;30.90;21.17;;;;;;;;;;4452892;32;20294;-76
2023/01/24 00:55:59;;;;;;;;;;;;;;;;;;4453793;32;20112;-75
2023/01/24 00:58:25;;;;;;;30.42;21.48;;;;;;;;;;4455080;32;19970;-76
2023/01/24 01:00:50;;;;;;;;;;;;;;;;;;4453312;32;20151;-76
2023/01/24 01:03:17;;;;;;;30.25;21.35;;;;;;;;;;4438421;32;19980;-76
2023/01/24 01:05:42;;;;;;;29.92;21.92;;;;;;;;;;4439251;32;20099;-75
2023/01/24 01:08:07;;;;;;;;;;;;;;;;;;4452606;32;20368;-76
2023/01/24 01:10:32;;;;;;;29.35;20.58;;;;;;;;;;4453219;32;20337;-76
2023/01/24 01:12:58;;;;;;;28.75;21.08;;;;;;;;;;4455081;32;20025;-76
2023/01/24 01:15:23;;;;;;;;;;;;;;;;;;4442136;32;20025;-75
2023/01/24 01:17:48;;;;;;;33.50;22.13;;;;;;;;;;4458059;32;19993;-76
2023/01/24 01:20:13;;;;;;;29.10;20.58;;;;;;;;;;4455326;32;20022;-76
2023/01/24 01:22:38;;;;;;;;;;;;;;;;;;4453284;32;20052;-75
2023/01/24 01:25:04;;;;;;;32.63;21.37;;;;;;;;;;4452827;32;20287;-76
2023/01/24 01:27:29;;;;;;;;;;;;;;;;;;4438380;32;20128;-76
2023/01/24 01:29:54;;;;;;;29.75;21.27;;;;;;;;;;4452299;32;19972;-77
2023/01/24 01:32:19;;;;;;;;;;;;;;;;;;4439043;32;20112;-77
2023/01/24 01:34:44;;;;;;;32.80;23.58;;;;;;;;;;4438192;32;20312;-76
2023/01/24 01:37:09;;;;;;;;;;;;;;;;;;4453906;32;20073;-75
2023/01/24 01:39:35;;;;;;;30.65;21.20;;;;;;;;;;4439341;32;19969;-76
2023/01/24 01:42:00;;;;;;;;;;;;;;;;;;4456418;32;20183;-76
2023/01/24 01:44:38;;;;;;;28.00;20.35;;;;;;;;;;4455830;32;19942;-77
2023/01/24 01:47:22;;;;;;;30.27;20.65;;;;;;;;;;4456567;32;20112;-77
2023/01/24 01:49:57;;;;;;;29.87;20.80;;;;;;;;;;4441177;32;20029;-77
2023/01/24 01:52:23;;;;;;;29.12;21.33;;;;;;;;;;4440573;32;20038;-76
2023/01/24 01:54:48;;;;;;;;;;;;;;;;;;4441102;32;20398;-76
2023/01/24 01:57:16;;;;;;;26.45;17.95;;;;;;;;;;4440945;32;19943;-76
2023/01/24 01:59:52;;;;;;;28.98;20.73;;;;;;;;;;4455033;32;20054;-77
2023/01/24 02:02:19;;;;;;;30.05;20.52;;;;;;;;;;4453869;32;20059;-76
2023/01/24 02:04:46;;;;;;;28.55;20.52;;;;;;;;;;4453960;32;20112;-76
2023/01/24 02:07:16;;;;;;;27.40;20.00;;;;;;;;;;4454870;32;20041;-76
2023/01/24 02:09:43;;;;;;;27.25;19.15;;;;;;;;;;4443398;32;20074;-74
2023/01/24 02:12:18;;;;;;;31.60;20.88;;;;;;;;;;4457061;32;20021;-76
2023/01/24 02:17:30;;;;;;;30.73;18.50;;;;;;;;;;4458044;32;20044;-75
2023/01/24 02:19:55;;;;;;;27.98;20.30;;;;;;;;;;4442807;32;20021;-76
2023/01/24 02:22:20;;;;;;;;;;;;;;;;;;4457255;32;20020;-74
2023/01/24 02:24:50;;;;;;;32.08;21.67;;;;;;;;;;4455662;32;19950;-75
2023/01/24 02:27:16;;;;;;;29.98;20.20;;;;;;;;;;4441646;32;20155;-75
2023/01/24 02:29:41;;;;;;;;;;;;;;;;;;4455608;32;20044;-76
2023/01/24 02:32:07;;;;;;;29.02;20.48;;;;;;;;;;4455987;32;19982;-75
2023/01/24 02:34:32;;;;;;;;;;;;;;;;;;4457667;32;20051;-74
2023/01/24 02:37:06;;;;;;;32.08;22.45;;;;;;;;;;4457537;32;19933;-75
2023/01/24 02:39:38;;;;;;;31.23;21.67;;;;;;;;;;4458126;32;20029;-76
2023/01/24 02:42:14;;;;;;;31.90;21.70;;;;;;;;;;4447588;32;20075;-75
2023/01/24 02:44:59;;;;;;;29.95;21.02;;;;;;;;;;4448758;32;20102;-76
2023/01/24 02:47:32;;;;;;;31.98;21.52;;;;;;;;;;4447028;32;20082;-76
2023/01/24 02:49:57;;;;;;;31.15;21.30;;;;;;;;;;4447964;32;20040;-76
2023/01/24 02:55:06;;;;;;;30.65;21.70;;;;;;;;;;4462092;32;19947;-76
2023/01/24 03:00:15;;;;;;;29.27;20.85;;;;;;;;;;4463337;32;19975;-77
2023/01/24 03:02:40;;;;;;;;;;;;;;;;;;4431910;32;20046;-77
2023/01/24 03:05:06;;;;;;;32.42;22.42;;;;;;;;;;4447389;32;19979;-76
2023/01/24 03:07:41;;;;;;;;;;;;;;;;;;4445551;32;20116;-74
2023/01/24 03:10:07;;;;;;;34.05;22.80;;;;;;;;;;4445647;32;19982;-75
2023/01/24 03:34:33;;;;;;;34.20;23.87;;;;;;;;;;4470167;32;20056;-76
2023/01/24 03:37:00;;;;;;;33.88;22.62;;;;;;;;;;4469427;32;19993;-75
2023/01/24 03:42:10;;;;;;;32.10;21.80;;;;;;;;;;4469444;32;20065;-75
2023/01/24 03:44:35;;;;;;;;;;;;;;;;;;4456647;32;20061;-73
2023/01/24 03:47:00;;;;;;;34.35;22.73;;;;;;;;;;4457189;32;19927;-76
2023/01/24 03:52:28;;;;;;;33.28;22.90;;;;;;;;;;4468747;32;19946;-76
2023/01/24 03:54:54;;;;;;;33.20;23.77;;;;;;;;;;4467698;32;20073;-76
2023/01/24 03:57:19;;;;;;;;;;;;;;;;;;4468119;32;20070;-76
2023/01/24 03:59:44;;;;;;;32.50;22.25;;;;;;;;;;4466609;32;19944;-74
2023/01/24 04:02:09;;;;;;;;;;;;;;;;;;4467716;32;20146;-76
2023/01/24 04:07:19;;;;;;;35.58;24.20;;;;;;;;;;4467953;32;20094;-77
2023/01/24 04:09:44;;;;;;;;;;;;;;;;;;4470115;32;20037;-77
2023/01/24 04:12:09;;;;;;;35.15;24.98;;;;;;;;;;4467814;32;19932;-76
2023/01/24 04:14:34;;;;;;;;;;;;;;;;;;4454378;32;20102;-76
2023/01/24 04:16:59;;;;;;;35.45;23.17;;;;;;;;;;4462291;32;19995;-76
2023/01/24 04:19:25;;;;;;;;;;;;;;;;;;4441881;32;20167;-76
2023/01/24 04:21:50;;;;;;;35.13;24.05;;;;;;;;;;4441325;32;20274;-76
2023/01/24 04:24:15;;;;;;;;;;;;;;;;;;4441975;32;20151;-77
2023/01/24 04:26:40;;;;;;;34.70;22.80;;;;;;;;;;4443528;32;19936;-76
2023/01/24 04:29:05;;;;;;;;;;;;;;;;;;4453546;32;20147;-76
2023/01/24 04:31:30;;;;;;;32.62;22.78;;;;;;;;;;4455498;32;19933;-76
2023/01/24 04:33:55;;;;;;;;;;;;;;;;;;4441130;32;20025;-77
2023/01/24 04:36:21;;;;;;;33.20;21.30;;;;;;;;;;4438879;32;19937;-76
2023/01/24 04:38:46;;;;;;;;;;;;;;;;;;4440021;32;20143;-76
2023/01/24 04:41:13;;;;;;;34.78;22.87;;;;;;;;;;4454045;32;19993;-74
2023/01/24 04:43:39;;;;;;;29.60;21.83;;;;;;;;;;4453106;32;20129;-77
2023/01/24 04:46:04;;;;;;;;;;;;;;;;;;4454499;32;20316;-77
2023/01/24 04:48:29;;;;;;;31.33;21.85;;;;;;;;;;4452460;32;19945;-76
2023/01/24 04:51:00;;;;;;;32.08;20.90;;;;;;;;;;4452857;32;20053;-77
2023/01/24 04:53:26;;;;;;;31.35;20.75;;;;;;;;;;4452628;32;20139;-76
2023/01/24 04:55:51;;;;;;;;;;;;;;;;;;4453689;32;20170;-75
2023/01/24 04:58:16;;;;;;;30.92;20.17;;;;;;;;;;4452668;32;19968;-75
2023/01/24 05:00:41;;;;;;;;;;;;;;;;;;4453714;32;20121;-75
2023/01/24 05:03:06;;;;;;;34.17;22.40;;;;;;;;;;4439098;32;19990;-77
2023/01/24 05:05:31;;;;;;;;;;;;;;;;;;4437590;32;20140;-77
2023/01/24 05:07:57;;;;;;;33.10;20.25;;;;;;;;;;4437851;32;19991;-77
2023/01/24 05:10:23;;;;;;;;;;;;;;;;;;4437800;32;20109;-76
2023/01/24 05:12:48;;;;;;;30.45;21.05;;;;;;;;;;4436822;32;19933;-76
2023/01/24 05:15:13;;;;;;;;;;;;;;;;;;4440200;32;20348;-76
2023/01/24 05:17:38;;;;;;;28.20;19.08;;;;;;;;;;4440934;32;19933;-77
2023/01/24 05:20:03;;;;;;;;;;;;;;;;;;4440817;32;20399;-77
2023/01/24 05:22:29;;;;;;;30.58;21.02;;;;;;;;;;4438214;32;19969;-76
2023/01/24 05:24:54;;;;;;;;;;;;;;;;;;4440085;32;20121;-77
2023/01/24 05:27:19;;;;;;;27.40;18.17;;;;;;;;;;4440614;32;19933;-77
2023/01/24 05:29:44;;;;;;;32.20;21.02;;;;;;;;;;4455249;32;20074;-76
2023/01/24 05:32:09;;;;;;;31.48;20.67;;;;;;;;;;4458488;32;20065;-77
2023/01/24 05:34:34;;;;;;;;;;;;;;;;;;4458899;32;20070;-77
2023/01/24 05:36:59;;;;;;;30.62;20.70;;;;;;;;;;4456452;32;20010;-77
2023/01/24 05:39:25;;;;;;;;;;;;;;;;;;4454944;32;20532;-77
2023/01/24 05:41:50;;;;;;;33.67;19.85;;;;;;;;;;4454498;32;19955;-76
2023/01/24 05:44:15;;;;;;;;;;;;;;;;;;4441261;32;20154;-77
2023/01/24 05:46:41;;;;;;;32.38;21.35;;;;;;;;;;4454844;32;19937;-76
2023/01/24 05:49:07;;;;;;;33.13;22.60;;;;;;;;;;4440994;32;20168;-76
2023/01/24 05:51:32;;;;;;;;;;;;;;;;;;4454227;32;20060;-75
2023/01/24 05:53:57;;;;;;;32.30;20.75;;;;;;;;;;4441130;32;20346;-76
2023/01/24 05:56:22;;;;;;;;;;;;;;;;;;4454422;32;20136;-76
2023/01/24 05:58:48;;;;;;;34.10;21.17;;;;;;;;;;4454049;32;19937;-76
2023/01/24 06:01:13;;;;;;;;;;;;;;;;;;4441933;32;20021;-76
2023/01/24 06:03:40;;;;;;;29.75;20.45;;;;;;;;;;4453923;32;19936;-76
2023/01/24 06:06:06;;;;;;;33.38;21.27;;;;;;;;;;4440506;32;20056;-76
2023/01/24 06:08:31;;;;;;;;;;;;;;;;;;4454485;32;20376;-77
2023/01/24 06:11:09;;;;;;;25.95;18.17;;;;;;;;;;4454011;32;19972;-76
2023/01/24 06:13:35;;;;;;;30.40;20.02;;;;;;;;;;4455079;32;20018;-76
2023/01/24 06:16:10;;;;;;;33.40;20.88;;;;;;;;;;4453852;32;20025;-76
2023/01/24 06:18:35;;;;;;;29.35;20.08;;;;;;;;;;4441727;32;20070;-76
2023/01/24 06:21:00;;;;;;;;;;;;;;;;;;4440618;32;20422;-77
2023/01/24 06:23:26;;;;;;;28.30;18.30;;;;;;;;;;4455166;32;19969;-76
2023/01/24 06:25:51;;;;;;;;;;;;;;;;;;4455063;32;20125;-77
2023/01/24 06:28:17;;;;;;;29.85;19.05;;;;;;;;;;4455104;32;20294;-76
2023/01/24 06:30:42;;;;;;;;;;;;;;;;;;4456581;32;20120;-76
2023/01/24 06:33:10;;;;;;;31.73;19.05;;;;;;;;;;4454834;32;20351;-77
2023/01/24 06:35:58;;;;;;;29.48;19.60;;;;;;;;;;4454922;32;20236;-76
2023/01/24 06:38:24;;;;;;;25.45;17.48;;;;;;;;;;4455259;32;20037;-76
2023/01/24 06:40:49;;;;;;;;;;;;;;;;;;4455014;32;20378;-75
2023/01/24 06:43:15;;;;;;;31.35;20.55;;;;;;;;;;4455469;32;19941;-76
2023/01/24 06:45:40;;;;;;;;;;;;;;;;;;4456168;32;20025;-77
2023/01/24 06:48:05;;;;;;;33.60;21.70;;;;;;;;;;4442312;32;20322;-76
2023/01/24 06:50:32;;;;;;;;;;;;;;;;;;4456782;32;20227;-75
2023/01/24 06:52:57;;;;;;;31.70;21.73;;;;;;;;;;4442513;32;20326;-77
2023/01/24 06:55:22;;;;;;;;;;;;;;;;;;4458507;32;20045;-77
2023/01/24 06:57:53;;;;;;;32.92;21.55;;;;;;;;;;4461367;32;19976;-78
2023/01/24 07:00:18;;;;;;;32.13;21.67;;;;;;;;;;4462896;32;20146;-76
2023/01/24 07:02:44;;;;;;;;;;;;;;;;;;4459038;32;20021;-77
2023/01/24 07:05:09;;;;;;;35.72;21.60;;;;;;;;;;4455447;32;19997;-76
2023/01/24 07:07:34;;;;;;;;;;;;;;;;;;4441177;32;20150;-77
2023/01/24 07:10:00;;;;;;;33.55;22.65;;;;;;;;;;4439442;32;19936;-77
2023/01/24 07:12:25;;;;;;;;;;;;;;;;;;4453932;32;20152;-77
2023/01/24 07:14:50;;;;;;;32.80;22.33;;;;;;;;;;4439778;32;19988;-75
2023/01/24 07:17:15;;;;;;;;;;;;;;;;;;4453630;32;20583;-76
2023/01/24 07:19:40;;;;;;;38.88;24.08;;;;;;;;;;4453169;32;19943;-76
2023/01/24 07:22:05;;;;;;;;;;;;;;;;;;4454152;32;20076;-77
2023/01/24 07:24:32;;;;;;;37.17;23.95;;;;;;;;;;4453225;32;19944;-76
2023/01/24 07:26:57;;;;;;;36.50;24.77;;;;;;;;;;4440987;32;20374;-75
2023/01/24 07:29:22;;;;;;;;;;;;;;;;;;4453836;32;20025;-77
2023/01/24 07:31:48;;;;;;;34.13;22.48;;;;;;;;;;4453544;32;19950;-76
2023/01/24 07:34:13;;;;;;;;;;;;;;;;;;4454614;32;20102;-76
2023/01/24 07:36:40;;;;;;;34.63;23.55;;;;;;;;;;4439343;32;19950;-75
2023/01/24 07:39:05;;;;;;;33.60;23.08;;;;;;;;;;4453446;32;20047;-77
2023/01/24 07:41:30;;;;;;;;;;;;;;;;;;4453864;32;20022;-76
2023/01/24 07:43:55;;;;;;;37.90;25.74;;;;;;;;;;4454313;32;20281;-76
2023/01/24 07:46:21;;;;;;;;;;;;;;;;;;4453606;32;20045;-75
2023/01/24 07:48:46;;;;;;;37.85;23.58;;;;;;;;;;4453641;32;19956;-76
2023/01/24 07:51:11;;;;;;;;;;;;;;;;;;4454645;32;20053;-78
2023/01/24 07:53:36;;;;;;;32.75;22.25;;;;;;;;;;4440031;32;19983;-75
2023/01/24 07:56:02;;;;;;;;;;;;;;;;;;4441027;32;20550;-77
2023/01/24 07:58:28;;;;;;;37.97;24.52;;;;;;;;;;4440984;32;19932;-77
2023/01/24 08:00:53;;;;;;;;;;;;;;;;;;4441081;32;20104;-76
2023/01/24 08:03:18;;;;;;;40.88;24.80;;;;;;;;;;4441195;32;19954;-76
2023/01/24 08:05:43;;;;;;;;;;;;;;;;;;4455890;32;20024;-76
2023/01/24 08:08:09;;;;;;;36.17;25.25;;;;;;;;;;4456660;32;19932;-76
2023/01/24 08:10:34;;;;;;;;;;;;;;;;;;4456884;32;20144;-78
2023/01/24 08:12:59;;;;;;;38.33;24.45;;;;;;;;;;4441595;32;19936;-77
2023/01/24 08:15:24;;;;;;;;;;;;;;;;;;4456313;32;20354;-76
2023/01/24 08:17:49;;;;;;;39.67;25.62;;;;;;;;;;4457433;32;19936;-75
2023/01/24 08:20:14;;;;;;;;;;;;;;;;;;4457578;32;20156;-76
2023/01/24 08:22:40;;;;;;;40.40;25.42;;;;;;;;;;4443916;32;19940;-77
2023/01/24 08:25:06;;;;;;;;;;;;;;;;;;4447176;32;20156;-76
2023/01/24 08:27:31;;;;;;;40.62;25.56;;;;;;;;;;4459657;32;20250;-77
2023/01/24 08:29:56;;;;;;;;;;;;;;;;;;4456902;32;20096;-77
2023/01/24 08:32:21;;;;;;;41.83;26.87;;;;;;;;;;4455156;32;19932;-77
2023/01/24 08:34:47;;;;;;;;;;;;;;;;;;4454784;32;20121;-77
2023/01/24 08:37:12;;;;;;;44.42;27.67;;;;;;;;;;4454247;32;19997;-77
2023/01/24 08:39:37;;;;;;;;;;;;;;;;;;4456228;32;20086;-77
2023/01/24 08:42:02;;;;;;;42.92;26.77;;;;;;;;;;4456386;32;19988;-75
2023/01/24 08:44:27;;;;;;;;;;;;;;;;;;4457331;32;20116;-78
2023/01/24 08:46:52;;;;;;;37.75;24.48;;;;;;;;;;4454757;32;19983;-76
2023/01/24 08:49:18;;;;;;;40.50;27.13;;;;;;;;;;4439219;32;20055;-78
2023/01/24 08:51:43;;;;;;;;;;;;;;;;;;4450990;32;20122;-77
2023/01/24 08:54:08;;;;;;;37.03;24.55;;;;;;;;;;4433972;32;19936;-78
2023/01/24 08:56:33;;;;;;;;;;;;;;;;;;4450003;32;20124;-77
2023/01/24 08:58:58;;;;;;;44.10;25.75;;;;;;;;;;4452601;32;19941;-78
2023/01/24 09:01:25;;;;;;;;;;;;;;;;;;4436658;32;20143;-77
2023/01/24 09:03:51;;;;;;;40.63;24.73;;;;;;;;;;4452144;32;19940;-76
2023/01/24 09:06:16;;;;;;;;;;;;;;;;;;4458881;32;20121;-77
2023/01/24 09:08:41;;;;;;;41.65;26.92;;;;;;;;;;4456278;32;20323;-77
2023/01/24 09:11:06;;;;;;;;;;;;;;;;;;4456749;32;20407;-79
2023/01/24 09:13:32;;;;;;;37.94;23.64;;;;;;;;;;4433847;32;19955;-77
2023/01/24 09:15:57;;;;;;;;;;;;;;;;;;4425606;32;20048;-77
2023/01/24 09:18:22;;;;;;;41.92;25.17;;;;;;;;;;4439928;32;19941;-77
2023/01/24 09:20:47;;;;;;;;;;;;;;;;;;4439331;32;20232;-77
2023/01/24 09:23:14;;;;;;;42.42;25.45;;;;;;;;;;4426016;32;19948;-77
2023/01/24 09:25:39;;;;;;;39.45;25.37;;;;;;;;;;4439465;32;20393;-77
2023/01/24 09:28:05;;;;;;;;;;;;;;;;;;4425287;32;20026;-78
2023/01/24 09:30:30;;;;;;;42.28;26.02;;;;;;;;;;4424359;32;19928;-77
2023/01/24 09:32:55;;;;;;;44.42;27.92;;;;;;;;;;4440095;32;20114;-77
2023/01/24 09:35:20;;;;;;;42.60;26.85;;;;;;;;;;4440012;32;20067;-77
2023/01/24 09:37:46;;;;;;;45.95;27.65;;;;;;;;;;4439986;32;20454;-76
2023/01/24 09:40:11;;;;;;;;;;;;;;;;;;4440880;32;20030;-77
2023/01/24 09:42:40;;;;;;;41.28;26.15;;;;;;;;;;4440495;32;19988;-76
2023/01/24 09:45:18;;;;;;;37.47;24.77;;;;;;;;;;4440964;32;20120;-76
2023/01/24 09:47:47;;;;;;;41.30;27.05;;;;;;;;;;4453959;32;20025;-76
2023/01/24 09:50:18;;;;;;;43.00;26.65;;;;;;;;;;4445633;32;20041;-76
2023/01/24 09:52:44;;;;;;;43.85;26.55;;;;;;;;;;4440111;32;20347;-76
2023/01/24 09:55:09;;;;;;;;;;;;;;;;;;4446784;32;20096;-77
2023/01/24 09:57:44;;;;;;;39.42;24.65;;;;;;;;;;4439319;32;19941;-77
2023/01/24 10:00:14;;;;;;;38.55;24.58;;;;;;;;;;4454254;32;20021;-78
2023/01/24 10:02:42;;;;;;;39.13;25.77;;;;;;;;;;4447473;32;20056;-77
2023/01/24 10:05:11;;;;;;;43.70;26.80;;;;;;;;;;4457086;32;20021;-75
2023/01/24 10:07:40;;;;;;;42.28;27.20;;;;;;;;;;4441285;32;20435;-76
2023/01/24 10:10:14;;;;;;;38.35;25.27;;;;;;;;;;4456657;32;20025;-75
2023/01/24 10:12:59;;;;;;;41.47;26.40;;;;;;;;;;4442406;32;20022;-76
2023/01/24 10:15:43;;;;;;;41.05;26.65;;;;;;;;;;4441677;32;20024;-76
2023/01/24 10:18:14;;;;;;;39.05;24.90;;;;;;;;;;4441391;32;20025;-76
2023/01/24 10:20:46;;;;;;;38.47;24.10;;;;;;;;;;4442245;32;20404;-76
2023/01/24 10:23:16;;;;;;;41.15;24.77;;;;;;;;;;4453262;32;20033;-76
2023/01/24 10:25:54;;;;;;;36.67;24.10;;;;;;;;;;4440278;32;20040;-77
2023/01/24 10:28:40;;;;;;;38.10;25.02;;;;;;;;;;4438836;32;20422;-77
2023/01/24 10:31:06;;;;;;;42.85;25.85;;;;;;;;;;4454518;32;20074;-76
2023/01/24 10:33:31;;;;;;;;;;;;;;;;;;4454147;32;20026;-76
2023/01/24 10:35:58;;;;;;;42.70;26.55;;;;;;;;;;4452888;32;19984;-76
2023/01/24 10:38:24;;;;;;;43.28;26.48;;;;;;;;;;4439251;32;20144;-77
2023/01/24 10:40:49;;;;;;;;;;;;;;;;;;4439128;32;20016;-76
2023/01/24 10:43:14;;;;;;;45.63;27.40;;;;;;;;;;4451554;32;19973;-77
2023/01/24 10:45:39;;;;;;;;;;;;;;;;;;4455649;32;20048;-77
2023/01/24 10:48:10;;;;;;;47.80;25.85;;;;;;;;;;4453187;32;19932;-77
2023/01/24 10:50:40;;;;;;;37.92;24.45;;;;;;;;;;4453504;32;20129;-76
2023/01/24 10:53:32;;;;;;;44.15;26.67;;;;;;;;;;4438192;32;20168;-77
2023/01/24 10:56:02;;;;;;;42.08;26.33;;;;;;;;;;4449769;32;20033;-75
2023/01/24 10:58:32;;;;;;;39.38;25.25;;;;;;;;;;4452839;32;20034;-76
2023/01/24 11:00:59;;;;;;;39.30;25.92;;;;;;;;;;4439543;32;20013;-75
2023/01/24 11:03:24;;;;;;;;;;;;;;;;;;4452659;32;20043;-75
2023/01/24 11:05:50;;;;;;;38.83;24.40;;;;;;;;;;4452570;32;19941;-75
2023/01/24 11:08:23;;;;;;;39.70;25.88;;;;;;;;;;4454013;32;20047;-77
2023/01/24 11:10:56;;;;;;;40.47;26.17;;;;;;;;;;4439721;32;20025;-77
2023/01/24 11:13:30;;;;;;;39.45;26.15;;;;;;;;;;4426900;32;20022;-78
2023/01/24 11:16:01;;;;;;;36.72;24.60;;;;;;;;;;4441369;32;20055;-77
2023/01/24 11:18:27;;;;;;;40.92;24.85;;;;;;;;;;4454442;32;20048;-77
2023/01/24 11:21:06;;;;;;;41.85;25.60;;;;;;;;;;4453106;32;20047;-76
2023/01/24 11:23:31;;;;;;;35.17;24.60;;;;;;;;;;4439733;32;20033;-77
2023/01/24 11:25:56;;;;;;;;;;;;;;;;;;4439546;32;20089;-77
2023/01/24 11:28:22;;;;;;;33.72;22.08;;;;;;;;;;4452515;32;19970;-77
2023/01/24 11:30:47;;;;;;;;;;;;;;;;;;4438824;32;20116;-77
2023/01/24 11:33:23;;;;;;;39.25;26.27;;;;;;;;;;4433220;32;19936;-77
2023/01/24 11:35:54;;;;;;;39.20;22.63;;;;;;;;;;4438579;32;20116;-77
2023/01/24 11:38:19;;;;;;;41.60;24.87;;;;;;;;;;4438612;32;20078;-77
2023/01/24 11:40:44;;;;;;;;;;;;;;;;;;4438781;32;20029;-77
2023/01/24 11:43:24;;;;;;;39.83;22.48;;;;;;;;;;4452000;32;19932;-77
2023/01/24 11:46:08;;;;;;;34.75;23.52;;;;;;;;;;4438155;32;20459;-77
2023/01/24 11:48:54;;;;;;;38.05;23.87;;;;;;;;;;4439370;32;20025;-77
2023/01/24 11:51:38;;;;;;;37.57;24.23;;;;;;;;;;4452703;32;20105;-77
2023/01/24 11:54:06;;;;;;;37.20;24.35;;;;;;;;;;4438668;32;20539;-76
2023/01/24 11:56:34;;;;;;;37.30;22.73;;;;;;;;;;4451920;32;20044;-76
2023/01/24 11:59:11;;;;;;;38.30;22.50;;;;;;;;;;4452810;32;20078;-76
2023/01/24 12:01:42;;;;;;;36.80;23.80;;;;;;;;;;4437849;32;20060;-76
2023/01/24 12:04:22;;;;;;;34.45;23.08;;;;;;;;;;4452163;32;20081;-77
2023/01/24 12:06:54;;;;;;;34.70;22.55;;;;;;;;;;4452510;32;20059;-77
2023/01/24 12:09:21;;;;;;;36.80;22.42;;;;;;;;;;4432782;32;20092;-77
2023/01/24 12:12:09;;;;;;;40.97;22.58;;;;;;;;;;4436940;32;20100;-77
2023/01/24 12:14:46;;;;;;;41.17;24.40;;;;;;;;;;4437392;32;20104;-76
2023/01/24 12:17:14;;;;;;;37.00;23.27;;;;;;;;;;4436013;32;20485;-77
2023/01/24 12:19:52;;;;;;;41.67;21.92;;;;;;;;;;4436968;32;20448;-77
2023/01/24 12:22:20;;;;;;;32.90;21.65;;;;;;;;;;4438113;32;20095;-78
2023/01/24 12:24:47;;;;;;;37.42;22.73;;;;;;;;;;4451473;32;20037;-77
2023/01/24 12:27:15;;;;;;;37.47;23.00;;;;;;;;;;4451294;32;20048;-77
2023/01/24 12:29:52;;;;;;;50.35;24.45;;;;;;;;;;4437529;32;20020;-76
2023/01/24 12:32:28;;;;;;;47.20;24.55;;;;;;;;;;4452025;32;20021;-76
2023/01/24 12:34:53;;;;;;;36.45;23.17;;;;;;;;;;4425468;32;20409;-77
2023/01/24 12:37:18;;;;;;;36.05;22.90;;;;;;;;;;4423129;32;20021;-77
2023/01/24 12:39:43;;;;;;;;;;;;;;;;;;4435031;32;20029;-77
2023/01/24 12:42:13;;;;;;;38.05;23.55;;;;;;;;;;4454954;32;20258;-78
2023/01/24 12:44:41;;;;;;;41.03;24.83;;;;;;;;;;4443143;32;20154;-77
2023/01/24 12:47:25;;;;;;;46.90;24.12;;;;;;;;;;4442414;32;20107;-77
2023/01/24 12:49:53;;;;;;;30.88;21.30;;;;;;;;;;4424572;32;20352;-77
2023/01/24 12:52:27;;;;;;;37.58;21.87;;;;;;;;;;4449023;32;20049;-77
2023/01/24 12:55:00;;;;;;;38.28;21.58;;;;;;;;;;4429572;32;20115;-78
2023/01/24 12:57:46;;;;;;;36.10;22.30;;;;;;;;;;4437168;32;20060;-76
2023/01/24 13:00:17;;;;;;;36.45;20.90;;;;;;;;;;4423255;32;20076;-77
2023/01/24 13:02:46;;;;;;;47.42;23.62;;;;;;;;;;4438208;32;20034;-77
2023/01/24 13:05:24;;;;;;;33.25;20.75;;;;;;;;;;4437421;32;20021;-77
2023/01/24 13:07:55;;;;;;;40.30;22.52;;;;;;;;;;4436806;32;20025;-76
2023/01/24 13:10:27;;;;;;;35.78;21.85;;;;;;;;;;4436108;32;20078;-77
2023/01/24 13:12:52;;;;;;;36.95;21.75;;;;;;;;;;4437501;32;20018;-77
2023/01/24 13:15:18;;;;;;;;;;;;;;;;;;4424560;32;20017;-75
2023/01/24 13:17:46;;;;;;;45.22;22.34;;;;;;;;;;4449732;32;19940;-77
2023/01/24 13:20:16;;;;;;;34.65;20.33;;;;;;;;;;4441166;32;20048;-77
2023/01/24 13:22:47;;;;;;;33.70;21.60;;;;;;;;;;4427885;32;20072;-75
2023/01/24 13:25:27;;;;;;;34.95;21.87;;;;;;;;;;4431740;32;20407;-75
2023/01/24 13:27:59;;;;;;;36.85;20.92;;;;;;;;;;4427117;32;20022;-76
2023/01/24 13:30:46;;;;;;;39.28;22.62;;;;;;;;;;4439015;32;20063;-76
2023/01/24 13:33:20;;;;;;;36.28;22.13;;;;;;;;;;4422846;32;20026;-76
2023/01/24 13:35:50;;;;;;;42.58;23.08;;;;;;;;;;4446567;32;20109;-78
2023/01/24 13:38:18;;;;;;;37.58;23.50;;;;;;;;;;4435261;32;20025;-76
2023/01/24 13:41:15;;;;;;;37.92;21.30;;;;;;;;;;4440433;32;20033;-77
2023/01/24 13:43:47;;;;;;;40.00;22.30;;;;;;;;;;4403660;32;20347;-76
2023/01/24 13:46:12;;;;;;;39.90;23.50;;;;;;;;;;4436617;32;20025;-76
2023/01/24 13:48:37;;;;;;;;;;;;;;;;;;4440817;32;20055;-76
2023/01/24 13:51:21;;;;;;;42.78;23.12;;;;;;;;;;4425320;32;20292;-78
2023/01/24 13:54:00;;;;;;;47.95;23.27;;;;;;;;;;4440463;32;20102;-76
2023/01/24 13:56:25;;;;;;;38.85;21.27;;;;;;;;;;4440134;32;20088;-78
2023/01/24 13:58:50;;;;;;;;;;;;;;;;;;4440362;32;20328;-77
2023/01/24 14:01:18;;;;;;;33.22;20.73;;;;;;;;;;4440689;32;19956;-77
2023/01/24 14:03:53;;;;;;;37.03;20.88;;;;;;;;;;4437537;32;20423;-77
2023/01/24 14:06:18;;;;;;;40.28;22.13;;;;;;;;;;4439054;32;20022;-76
2023/01/24 14:08:43;;;;;;;;;;;;;;;;;;4454530;32;20044;-76
2023/01/24 14:11:14;;;;;;;33.78;21.42;;;;;;;;;;4424302;32;19948;-77
2023/01/24 14:13:55;;;;;;;37.13;22.40;;;;;;;;;;4447293;32;20088;-76
2023/01/24 14:16:23;;;;;;;40.92;21.52;;;;;;;;;;4452989;32;20034;-78
2023/01/24 14:18:50;;;;;;;35.88;22.13;;;;;;;;;;4452631;32;20074;-75
2023/01/24 14:21:23;;;;;;;31.02;19.80;;;;;;;;;;4451919;32;20021;-75
2023/01/24 14:23:56;;;;;;;40.95;22.62;;;;;;;;;;4437952;32;20033;-76
2023/01/24 14:26:22;;;;;;;36.75;22.33;;;;;;;;;;4438070;32;20029;-75
2023/01/24 14:28:51;;;;;;;35.83;21.60;;;;;;;;;;4437912;32;20056;-75
2023/01/24 14:31:24;;;;;;;31.77;20.67;;;;;;;;;;4438614;32;20108;-77
2023/01/24 14:33:52;;;;;;;33.47;21.42;;;;;;;;;;4438584;32;20029;-77
2023/01/24 14:36:24;;;;;;;39.10;21.75;;;;;;;;;;4437674;32;20060;-76
2023/01/24 14:39:09;;;;;;;31.00;20.33;;;;;;;;;;4429892;32;20422;-77
2023/01/24 14:41:34;;;;;;;36.72;21.08;;;;;;;;;;4440512;32;20042;-78
2023/01/24 14:43:59;;;;;;;;;;;;;;;;;;4439223;32;20021;-77
2023/01/24 14:46:24;;;;;;;35.97;21.87;;;;;;;;;;4447185;32;19936;-76
2023/01/24 14:48:49;;;;;;;;;;;;;;;;;;4437496;32;20137;-76
2023/01/24 14:51:16;;;;;;;35.46;21.90;;;;;;;;;;4437179;32;19951;-76
2023/01/24 14:53:45;;;;;;;33.60;21.00;;;;;;;;;;4437552;32;20090;-77
2023/01/24 14:56:13;;;;;;;34.33;21.95;;;;;;;;;;4436751;32;20018;-77
2023/01/24 14:58:38;;;;;;;32.20;19.77;;;;;;;;;;4437200;32;20105;-77
2023/01/24 15:01:03;;;;;;;;;;;;;;;;;;4437216;32;20029;-76
2023/01/24 15:03:30;;;;;;;33.45;20.98;;;;;;;;;;4436951;32;20278;-77
2023/01/24 15:05:55;;;;;;;33.50;21.52;;;;;;;;;;4435369;32;20120;-76
2023/01/24 15:08:20;;;;;;;;;;;;;;;;;;4453454;32;20059;-77
2023/01/24 15:10:51;;;;;;;33.60;20.35;;;;;;;;;;4441493;32;19932;-76
2023/01/24 15:13:23;;;;;;;31.52;20.75;;;;;;;;;;4423033;32;20110;-76
2023/01/24 15:15:48;;;;;;;32.83;22.27;;;;;;;;;;4441286;32;20052;-77
2023/01/24 15:18:13;;;;;;;;;;;;;;;;;;4453666;32;20021;-76
2023/01/24 15:20:45;;;;;;;37.85;22.33;;;;;;;;;;4438962;32;19984;-77
2023/01/24 15:23:16;;;;;;;31.67;21.17;;;;;;;;;;4439490;32;20490;-75
2023/01/24 15:25:42;;;;;;;32.28;20.55;;;;;;;;;;4428244;32;20332;-75
2023/01/24 15:28:07;;;;;;;;;;;;;;;;;;4437212;32;20082;-77
2023/01/24 15:30:32;;;;;;;32.83;20.15;;;;;;;;;;4429326;32;20263;-75
2023/01/24 15:32:57;;;;;;;;;;;;;;;;;;4437132;32;20121;-76
2023/01/24 15:35:26;;;;;;;31.60;20.37;;;;;;;;;;4439124;32;19959;-77
2023/01/24 15:38:10;;;;;;;38.30;21.52;;;;;;;;;;4440758;32;20048;-76